sensor_id;sensor_type;location;lat;lon;timestamp;pressure;altitude;pressure_sealevel;temperature;humidity
63582;BME280;49727;51.078;17.066;2023-04-06T00:10:04;100679.13;;;-2.49;74.23
63582;BME280;49727;51.078;17.066;2023-04-06T00:25:05;100676.41;;;-2.65;74.98
63582;BME280;49727;51.078;17.066;2023-04-06T00:40:06;100677.00;;;-2.78;75.53
63582;BME280;49727;51.078;17.066;2023-04-06T00:55:07;100671.47;;;-2.89;75.01
63582;BME280;49727;51.078;17.066;2023-04-06T01:10:08;100670.34;;;-3.02;75.50
63582;BME280;49727;51.078;17.066;2023-04-06T01:25:09;100673.66;;;-3.18;75.55
63582;BME280;49727;51.078;17.066;2023-04-06T01:40:10;100660.28;;;-3.29;75.79
63582;BME280;49727;51.078;17.066;2023-04-06T01:55:11;100660.84;;;-3.42;76.19
63582;BME280;49727;51.078;17.066;2023-04-06T02:10:14;100660.34;;;-3.50;75.94
63582;BME280;49727;51.078;17.066;2023-04-06T02:25:15;100661.66;;;-3.60;76.59
63582;BME280;49727;51.078;17.066;2023-04-06T02:40:15;100660.88;;;-3.62;76.47
63582;BME280;49727;51.078;17.066;2023-04-06T02:55:16;100671.41;;;-3.65;76.98
63582;BME280;49727;51.078;17.066;2023-04-06T03:10:16;100680.28;;;-3.69;77.34
63582;BME280;49727;51.078;17.066;2023-04-06T03:25:17;100687.38;;;-3.73;76.99
63582;BME280;49727;51.078;17.066;2023-04-06T03:40:17;100694.47;;;-3.77;77.52
63582;BME280;49727;51.078;17.066;2023-04-06T03:55:18;100706.59;;;-3.76;77.69
63582;BME280;49727;51.078;17.066;2023-04-06T04:10:18;100712.03;;;-3.82;77.62
63582;BME280;49727;51.078;17.066;2023-04-06T04:25:18;100712.13;;;-3.83;77.35
63582;BME280;49727;51.078;17.066;2023-04-06T04:40:19;100705.94;;;-3.81;77.19
63582;BME280;49727;51.078;17.066;2023-04-06T04:55:19;100716.19;;;-3.57;77.85
63582;BME280;49727;51.078;17.066;2023-04-06T05:10:19;100715.44;;;-3.00;77.68
63582;BME280;49727;51.078;17.066;2023-04-06T05:25:20;100721.63;;;-2.11;78.49
63582;BME280;49727;51.078;17.066;2023-04-06T05:40:20;100732.28;;;-1.12;77.68
63582;BME280;49727;51.078;17.066;2023-04-06T05:55:21;100729.44;;;-0.27;77.66
63582;BME280;49727;51.078;17.066;2023-04-06T06:10:22;100741.63;;;0.63;76.95
63582;BME280;49727;51.078;17.066;2023-04-06T06:25:23;100729.03;;;1.81;76.45
63582;BME280;49727;51.078;17.066;2023-04-06T06:40:24;100731.09;;;3.06;74.67
63582;BME280;49727;51.078;17.066;2023-04-06T06:55:24;100718.09;;;4.13;72.41
63582;BME280;49727;51.078;17.066;2023-04-06T07:10:26;100721.06;;;5.23;71.12
63582;BME280;49727;51.078;17.066;2023-04-06T07:25:27;100731.72;;;6.41;69.61
63582;BME280;49727;51.078;17.066;2023-04-06T07:40:27;100735.94;;;7.86;66.63
63582;BME280;49727;51.078;17.066;2023-04-06T07:55:28;100738.09;;;9.34;63.65
63582;BME280;49727;51.078;17.066;2023-04-06T08:10:28;100733.72;;;10.86;58.52
63582;BME280;49727;51.078;17.066;2023-04-06T08:25:29;100732.25;;;12.01;54.28
63582;BME280;49727;51.078;17.066;2023-04-06T08:40:29;100733.88;;;13.16;48.64
63582;BME280;49727;51.078;17.066;2023-04-06T08:55:30;100727.88;;;14.53;45.46
63582;BME280;49727;51.078;17.066;2023-04-06T09:10:32;100728.66;;;16.52;39.13
63582;BME280;49727;51.078;17.066;2023-04-06T09:25:32;100724.22;;;30.58;20.87
63582;BME280;49727;51.078;17.066;2023-04-06T09:40:32;100711.38;;;31.21;17.15
63582;BME280;49727;51.078;17.066;2023-04-06T09:55:43;100699.59;;;32.80;14.90
63582;BME280;49727;51.078;17.066;2023-04-06T10:10:43;100696.72;;;34.75;12.18
63582;BME280;49727;51.078;17.066;2023-04-06T10:25:59;100681.75;;;37.61;10.61
63582;BME280;49727;51.078;17.066;2023-04-06T10:41:07;100671.94;;;41.78;8.13
63582;BME280;49727;51.078;17.066;2023-04-06T10:56:15;100655.91;;;44.96;6.26
63582;BME280;49727;51.078;17.066;2023-04-06T11:11:17;100646.88;;;46.22;5.50
63582;BME280;49727;51.078;17.066;2023-04-06T11:26:18;100624.19;;;39.83;7.74
63582;BME280;49727;51.078;17.066;2023-04-06T11:41:23;100606.66;;;36.52;7.95
63582;BME280;49727;51.078;17.066;2023-04-06T11:56:30;100599.63;;;40.56;6.39
63582;BME280;49727;51.078;17.066;2023-04-06T12:11:30;100586.88;;;38.46;6.80
63582;BME280;49727;51.078;17.066;2023-04-06T12:26:31;100563.38;;;31.51;9.69
63582;BME280;49727;51.078;17.066;2023-04-06T12:41:32;100534.53;;;26.15;12.72
63582;BME280;49727;51.078;17.066;2023-04-06T12:56:32;100519.88;;;23.93;14.33
63582;BME280;49727;51.078;17.066;2023-04-06T13:11:33;100503.06;;;22.48;15.63
63582;BME280;49727;51.078;17.066;2023-04-06T13:26:33;100507.09;;;21.57;15.92
63582;BME280;49727;51.078;17.066;2023-04-06T13:41:33;100493.97;;;21.19;16.48
63582;BME280;49727;51.078;17.066;2023-04-06T13:56:34;100485.88;;;19.65;17.36
63582;BME280;49727;51.078;17.066;2023-04-06T14:11:34;100483.03;;;18.77;18.58
63582;BME280;49727;51.078;17.066;2023-04-06T14:26:35;100478.66;;;17.72;19.65
63582;BME280;49727;51.078;17.066;2023-04-06T14:41:36;100467.44;;;16.75;20.76
63582;BME280;49727;51.078;17.066;2023-04-06T14:56:36;100466.97;;;15.61;21.69
63582;BME280;49727;51.078;17.066;2023-04-06T15:11:38;100456.31;;;14.75;22.72
63582;BME280;49727;51.078;17.066;2023-04-06T15:26:39;100449.38;;;14.07;23.54
63582;BME280;49727;51.078;17.066;2023-04-06T15:41:39;100437.59;;;13.33;24.34
63582;BME280;49727;51.078;17.066;2023-04-06T15:56:40;100430.88;;;12.30;26.17
63582;BME280;49727;51.078;17.066;2023-04-06T16:11:40;100437.47;;;11.55;27.16
63582;BME280;49727;51.078;17.066;2023-04-06T16:26:40;100435.06;;;10.87;27.69
63582;BME280;49727;51.078;17.066;2023-04-06T16:41:41;100439.38;;;10.12;28.76
63582;BME280;49727;51.078;17.066;2023-04-06T16:56:42;100434.84;;;9.36;30.21
63582;BME280;49727;51.078;17.066;2023-04-06T17:11:42;100439.50;;;8.71;31.29
63582;BME280;49727;51.078;17.066;2023-04-06T17:26:43;100448.34;;;8.16;32.16
63582;BME280;49727;51.078;17.066;2023-04-06T17:41:43;100456.44;;;7.49;34.49
63582;BME280;49727;51.078;17.066;2023-04-06T17:56:43;100459.97;;;7.10;35.42
63582;BME280;49727;51.078;17.066;2023-04-06T18:11:44;100466.16;;;7.01;35.48
63582;BME280;49727;51.078;17.066;2023-04-06T18:26:44;100468.22;;;6.88;35.62
63582;BME280;49727;51.078;17.066;2023-04-06T18:41:45;100472.38;;;6.81;36.07
63582;BME280;49727;51.078;17.066;2023-04-06T18:56:46;100485.91;;;6.77;36.46
63582;BME280;49727;51.078;17.066;2023-04-06T19:11:46;100482.44;;;6.67;37.15
63582;BME280;49727;51.078;17.066;2023-04-06T19:26:46;100482.97;;;6.51;37.96
63582;BME280;49727;51.078;17.066;2023-04-06T19:41:47;100474.13;;;6.31;38.35
63582;BME280;49727;51.078;17.066;2023-04-06T19:56:47;100469.22;;;6.07;38.84
63582;BME280;49727;51.078;17.066;2023-04-06T20:11:48;100463.50;;;6.12;39.31
63582;BME280;49727;51.078;17.066;2023-04-06T20:26:48;100465.59;;;6.18;39.05
63582;BME280;49727;51.078;17.066;2023-04-06T20:41:50;100452.81;;;6.23;39.38
63582;BME280;49727;51.078;17.066;2023-04-06T20:56:50;100442.66;;;6.28;39.44
63582;BME280;49727;51.078;17.066;2023-04-06T21:11:50;100429.16;;;6.31;39.60
63582;BME280;49727;51.078;17.066;2023-04-06T21:26:51;100441.69;;;6.29;40.01
63582;BME280;49727;51.078;17.066;2023-04-06T21:41:51;100413.00;;;6.24;40.12
63582;BME280;49727;51.078;17.066;2023-04-06T21:56:51;100425.91;;;6.18;40.06
63582;BME280;49727;51.078;17.066;2023-04-06T22:11:52;100406.56;;;6.07;40.55
63582;BME280;49727;51.078;17.066;2023-04-06T22:26:52;100389.78;;;5.97;40.69
63582;BME280;49727;51.078;17.066;2023-04-06T22:41:52;100389.78;;;5.97;41.23
63582;BME280;49727;51.078;17.066;2023-04-06T22:56:53;100393.09;;;5.80;42.07
63582;BME280;49727;51.078;17.066;2023-04-06T23:11:53;100396.03;;;5.46;43.98
63582;BME280;49727;51.078;17.066;2023-04-06T23:26:55;100387.88;;;5.06;46.15
63582;BME280;49727;51.078;17.066;2023-04-06T23:41:56;100384.13;;;4.88;48.01
63582;BME280;49727;51.078;17.066;2023-04-06T23:56:56;100384.63;;;4.61;49.84
